Latest Weather Observations for Trangie

IDN60801

Issued at 2:05 pm EST Wednesday 16 April 2014 (issued every 30 minutes, with the page automatically refreshed every 10 minutes)

About weather observations | Map of weather stations | Latest weather observations for NSW | Other Formats
Station Details ID: 051049 Name: TRANGIE RESEARCH STATION AWS Lat: -31.99 Lon: 147.95 Height: 215.0 m
Data from the previous 72 hours. | See also: Recent months at Trangie
Date/Time
EST
Temp
°C
App
Temp
°C
Dew
Point
Rel
Hum
%
Delta-T
°C
Wind Press
QNH
hPa
Press
MSL
hPa
Rain
since 9 am
mm
Dir
 
Spd
km/h
Gust
km/h
Spd
kts
Gust
kts
16/02:00pm 23.6 20.8 11.3 46 6.9 SE 17 26 9 14 1017.7 - 0.0
16/01:30pm 23.2 20.9 10.3 44 7.1 ESE 13 22 7 12 1017.7 - 0.0
16/01:00pm 21.9 19.7 10.7 49 6.2 ESE 13 24 7 13 1018.1 - 0.0
16/12:30pm 22.6 20.7 11.7 50 6.2 E 13 20 7 11 1018.5 - 0.0
16/12:00pm 22.1 20.1 11.5 51 6.0 E 13 22 7 12 1019.0 1018.5 0.0
16/11:30am 21.8 19.6 12.1 54 5.5 E 15 24 8 13 1019.4 - 0.0
16/11:00am 21.5 19.8 12.6 57 5.1 ESE 13 22 7 12 1019.9 - 0.0
16/10:30am 20.4 18.5 11.9 58 4.8 ESE 13 22 7 12 1020.1 - 0.0
16/10:00am 19.7 17.6 12.5 63 4.1 ESE 15 20 8 11 1020.2 - 0.0
16/09:30am 19.0 16.4 12.0 64 3.9 E 17 28 9 15 1020.2 - 0.0
16/09:00am 18.2 17.0 12.9 71 3.0 ESE 11 20 6 11 1020.4 1020.0 0.0
16/08:30am 17.1 16.4 13.2 78 2.2 ESE 9 15 5 8 1020.5 - 0.0
16/08:00am 15.4 15.4 13.6 89 1.0 SE 6 9 3 5 1020.2 - 0.0
16/07:30am 13.9 13.8 13.4 97 0.3 SE 6 9 3 5 1019.8 - 0.0
16/07:00am 12.3 11.8 12.1 99 0.1 SSE 6 7 3 4 1019.6 - 0.0
16/06:30am 11.4 10.6 10.9 97 0.3 SE 6 7 3 4 1019.0 - 0.0
16/06:00am 11.2 11.4 10.7 97 0.3 CALM 0 0 0 0 1018.8 1018.3 0.0
16/05:30am 11.3 11.6 10.8 97 0.3 CALM 0 0 0 0 1018.6 - 0.0
16/05:00am 11.1 11.3 10.5 96 0.3 CALM 0 0 0 0 1018.4 - 0.0
16/04:30am 11.4 11.6 10.6 95 0.4 CALM 0 0 0 0 1018.0 - 0.0
16/04:00am 11.9 12.3 11.1 95 0.4 CALM 0 0 0 0 1018.2 - 0.0
16/03:30am 11.9 11.9 11.0 94 0.5 SE 2 6 1 3 1018.1 - 0.0
16/03:00am 11.9 11.1 11.0 94 0.5 E 6 9 3 5 1018.0 1017.6 0.0
16/02:30am 12.0 11.5 10.9 93 0.6 ESE 4 6 2 3 1018.0 - 0.0
16/02:00am 12.3 11.9 11.0 92 0.7 ESE 4 7 2 4 1018.7 - 0.0
16/01:30am 12.5 11.7 11.2 92 0.7 ESE 6 7 3 4 1018.8 - 0.0
16/01:00am 12.5 11.5 11.1 91 0.7 SSE 7 9 4 5 1019.1 - 0.0
16/12:30am 12.5 11.5 10.9 90 0.8 SE 7 11 4 6 1019.0 - 0.0
16/12:00am 13.3 12.6 11.4 88 1.0 ESE 6 9 3 5 1019.0 1018.5 0.0
 
Date/Time
EST
Temp
°C
App
Temp
°C
Dew
Point
Rel
Hum
%
Delta-T
°C
Wind Press
QNH
hPa
Press
MSL
hPa
Rain
since 9 am
mm
Dir
 
Spd
km/h
Gust
km/h
Spd
kts
Gust
kts
15/11:30pm 13.7 12.8 11.4 86 1.2 SE 7 9 4 5 1019.0 - 0.0
15/11:00pm 14.4 13.9 12.1 86 1.3 SSE 6 7 3 4 1019.0 - 0.0
15/10:30pm 14.8 14.1 11.9 83 1.6 SSE 7 9 4 5 1019.0 - 0.0
15/10:00pm 15.2 14.3 12.5 84 1.5 SSE 9 11 5 6 1019.0 - 0.0
15/09:30pm 15.2 14.7 12.1 82 1.7 S 6 9 3 5 1018.9 - 0.0
15/09:00pm 15.5 15.1 12.3 81 1.8 SSE 6 9 3 5 1018.7 1018.2 0.0
15/08:30pm 16.1 15.7 12.5 79 2.0 SSE 6 9 3 5 1018.6 - 0.0
15/08:00pm 16.8 16.4 12.5 76 2.4 SSE 6 9 3 5 1018.4 - 0.0
15/07:30pm 17.2 16.7 12.5 74 2.6 SSE 7 13 4 7 1018.1 - 0.0
15/07:00pm 18.2 17.8 12.9 71 3.0 S 7 15 4 8 1018.0 - 0.0
15/06:30pm 17.8 17.4 12.5 71 3.0 SSE 6 9 3 5 1017.7 - 0.0
15/06:00pm 18.2 18.1 12.2 68 3.3 SE 4 7 2 4 1017.5 1017.1 0.0
15/05:30pm 20.0 19.6 12.5 62 4.3 SE 6 9 3 5 1017.3 - 0.0
15/05:00pm 21.3 21.8 12.7 58 4.9 SE 2 6 1 3 1016.9 - 0.0
15/04:30pm 21.7 20.7 11.1 51 5.9 SSE 7 11 4 6 1016.8 - 0.0
15/04:00pm 22.5 21.3 10.3 46 6.7 SSE 7 11 4 6 1016.9 - 0.0
15/03:30pm 22.3 22.1 10.5 47 6.5 SSE 2 6 1 3 1017.1 - 0.0
15/03:00pm 22.2 20.9 10.0 46 6.7 SE 7 13 4 7 1017.2 1016.8 0.0
15/02:30pm 23.0 21.9 10.8 46 6.8 ENE 7 13 4 7 1017.3 - 0.0
15/02:00pm 23.1 22.4 12.1 50 6.3 E 7 15 4 8 1017.3 - 0.0
15/01:30pm 23.3 22.6 12.0 49 6.5 E 7 13 4 7 1017.4 - 0.0
15/01:00pm 22.7 21.6 12.0 50 6.1 NE 9 17 5 9 1017.8 - 0.0
15/12:30pm 22.3 21.0 12.5 53 5.6 NE 11 17 6 9 1018.2 - 0.0
15/12:00pm 21.2 19.2 11.5 54 5.4 ENE 13 19 7 10 1018.8 1018.3 0.0
15/11:30am 21.6 20.5 13.0 58 5.0 E 11 26 6 14 1019.1 - 0.0
15/11:00am 20.6 19.0 12.8 61 4.5 ENE 13 20 7 11 1019.5 - 0.0
15/10:30am 20.4 18.5 12.9 62 4.3 E 15 26 8 14 1019.8 - 0.0
15/10:00am 19.6 18.1 13.1 66 3.7 ENE 13 22 7 12 1019.9 - 0.0
15/09:30am 18.8 17.3 13.2 70 3.2 E 13 20 7 11 1020.0 - 0.0
15/09:00am 17.7 15.3 12.8 73 2.8 E 17 28 9 15 1019.9 1019.4 0.0
15/08:30am 17.1 15.4 12.6 75 2.5 E 13 20 7 11 1019.9 - 0.0
15/08:00am 15.8 14.3 12.0 78 2.1 ESE 11 20 6 11 1019.8 - 0.0
15/07:30am 15.0 13.6 12.1 83 1.6 ESE 11 17 6 9 1019.4 - 0.0
15/07:00am 13.5 12.3 11.7 89 1.0 ESE 9 15 5 8 1019.2 - 0.0
15/06:30am 13.0 11.7 11.1 88 1.0 E 9 15 5 8 1018.9 - 0.0
15/06:00am 13.4 11.8 11.5 88 1.0 E 11 17 6 9 1018.9 1018.4 0.0
15/05:30am 13.5 11.9 11.4 87 1.1 E 11 19 6 10 1018.8 - 0.0
15/05:00am 13.2 11.5 11.1 87 1.1 ESE 11 19 6 10 1018.6 - 0.0
15/04:30am 13.3 11.6 11.2 87 1.1 E 11 15 6 8 1018.2 - 0.0
15/04:00am 13.3 12.0 11.2 87 1.1 ESE 9 17 5 9 1018.1 - 0.0
15/03:30am 13.3 11.6 11.2 87 1.1 E 11 17 6 9 1018.2 - 0.0
15/03:00am 13.2 11.9 11.3 88 1.0 E 9 17 5 9 1018.2 1017.8 0.0
15/02:30am 13.5 12.2 11.2 86 1.2 E 9 17 5 9 1018.5 - 0.0
15/02:00am 13.8 12.2 11.7 87 1.1 E 11 19 6 10 1018.7 - 0.0
15/01:30am 13.1 11.6 10.6 85 1.3 E 9 15 5 8 1018.7 - 0.0
15/01:00am 13.6 12.6 10.9 84 1.4 E 7 13 4 7 1019.0 - 0.0
15/12:30am 14.1 12.4 11.3 83 1.5 E 11 15 6 8 1018.8 - 0.0
15/12:00am 13.8 12.3 10.6 81 1.7 E 9 15 5 8 1018.8 1018.3 0.0
 
Date/Time
EST
Temp
°C
App
Temp
°C
Dew
Point
Rel
Hum
%
Delta-T
°C
Wind Press
QNH
hPa
Press
MSL
hPa
Rain
since 9 am
mm
Dir
 
Spd
km/h
Gust
km/h
Spd
kts
Gust
kts
14/11:30pm 14.7 13.1 11.5 81 1.7 E 11 17 6 9 1018.6 - 0.0
14/11:00pm 13.6 12.7 10.8 83 1.5 ESE 6 9 3 5 1018.5 - 0.0
14/10:30pm 14.2 13.3 11.2 82 1.6 E 7 9 4 5 1018.6 - 0.0
14/10:00pm 13.6 12.4 10.4 81 1.7 SE 7 9 4 5 1018.7 - 0.0
14/09:30pm 14.1 13.1 10.3 78 2.0 SE 6 9 3 5 1018.7 - 0.0
14/09:00pm 14.4 14.1 10.2 76 2.2 SE 2 6 1 3 1018.6 1018.1 0.0
14/08:30pm 15.1 14.4 10.1 72 2.6 SE 4 7 2 4 1018.5 - 0.0
14/08:00pm 15.8 15.6 10.3 70 2.9 SSE 2 7 1 4 1018.1 - 0.0
14/07:30pm 16.1 15.2 10.6 70 2.9 SSE 6 7 3 4 1018.1 - 0.0
14/07:00pm 16.4 16.6 10.5 68 3.2 CALM 0 0 0 0 1017.8 - 0.0
14/06:30pm 17.0 16.7 10.1 64 3.7 SE 2 6 1 3 1017.6 - 0.0
14/06:00pm 18.4 18.1 10.0 58 4.5 SE 2 6 1 3 1017.2 1016.8 0.0
14/05:30pm 20.6 19.6 10.4 52 5.6 SE 6 9 3 5 1016.8 - 0.0
14/05:00pm 22.3 20.6 9.8 45 6.8 SE 9 15 5 8 1016.5 - 0.0
14/04:30pm 23.1 20.6 9.8 43 7.3 SE 13 20 7 11 1016.4 - 0.0
14/04:00pm 23.7 21.0 10.4 43 7.4 SSE 15 26 8 14 1016.4 - 0.0
14/03:30pm 23.7 21.2 9.7 41 7.7 SSE 13 24 7 13 1016.4 - 0.0
14/03:00pm 23.8 21.1 10.5 43 7.4 SE 15 26 8 14 1016.3 1015.9 0.0
14/02:30pm 23.6 20.6 10.6 44 7.3 SSE 17 26 9 14 1016.2 - 0.0
14/02:00pm 23.6 21.6 10.3 43 7.4 ESE 11 20 6 11 1016.3 - 0.0
14/01:30pm 23.3 20.1 10.0 43 7.3 SE 17 26 9 14 1016.4 - 0.0
14/01:00pm 23.1 20.9 12.1 50 6.3 SE 15 24 8 13 1016.8 - 0.0
14/12:30pm 22.7 20.5 12.0 50 6.1 ESE 15 24 8 13 1017.3 - 0.0
14/12:00pm 22.4 20.8 12.9 55 5.5 ESE 13 22 7 12 1017.7 1017.3 0.0
14/11:30am 22.0 20.0 12.8 56 5.3 E 15 28 8 15 1018.2 - 0.0
14/11:00am 21.3 19.6 13.5 61 4.5 ESE 15 24 8 13 1018.6 - 0.0
14/10:30am 20.2 17.7 12.4 61 4.4 ESE 17 26 9 14 1018.8 - 0.0
14/10:00am 19.6 17.2 12.8 65 3.9 E 17 28 9 15 1018.9 - 0.0
14/09:30am 18.8 15.9 12.3 66 3.7 E 19 32 10 17 1018.9 - 0.0
14/09:00am 18.0 15.4 12.0 68 3.3 E 17 28 9 15 1018.7 1018.2 0.0
14/08:30am 17.2 14.4 12.5 74 2.6 E 19 32 10 17 1018.6 - 0.0
14/08:00am 16.0 13.8 12.0 77 2.2 ESE 15 24 8 13 1018.5 - 0.0
14/07:30am 14.8 13.8 12.3 85 1.4 ESE 9 17 5 9 1018.1 - 0.0
14/07:00am 13.3 12.8 12.5 95 0.4 ESE 7 13 4 7 1017.7 - 0.0
14/06:30am 12.4 11.6 11.6 95 0.4 SE 7 11 4 6 1017.4 - 0.0
14/06:00am 12.8 11.7 12.0 95 0.4 SE 9 13 5 7 1017.3 1016.9 0.0
14/05:30am 13.1 12.1 12.2 94 0.5 SE 9 13 5 7 1017.1 - 0.0
14/05:00am 13.6 12.7 12.7 94 0.5 SE 9 15 5 8 1016.8 - 0.0
14/04:30am 13.6 13.1 12.8 95 0.4 ESE 7 13 4 7 1016.7 - 0.0
14/04:00am 13.5 13.0 12.7 95 0.4 ESE 7 13 4 7 1016.6 - 0.0
14/03:30am 13.5 13.0 12.7 95 0.4 ESE 7 13 4 7 1016.5 - 0.0
14/03:00am 13.7 13.2 12.8 94 0.5 SE 7 9 4 5 1016.6 1016.2 0.0
14/02:30am 14.2 13.8 13.1 93 0.6 SE 7 13 4 7 1016.5 - 0.0
14/02:00am 14.5 13.9 13.5 94 0.6 SE 9 13 5 7 1016.9 - 0.0
14/01:30am 13.6 13.0 12.3 92 0.7 SE 7 11 4 6 1017.0 - 0.0
14/01:00am 14.0 13.3 12.0 88 1.1 SSE 7 11 4 6 1017.0 - 0.0
14/12:30am 14.7 14.1 12.4 86 1.3 SE 7 9 4 5 1017.1 - 0.0
14/12:00am 15.0 14.2 12.9 87 1.2 ESE 9 15 5 8 1017.2 1016.8 0.0
 
Date/Time
EST
Temp
°C
App
Temp
°C
Dew
Point
Rel
Hum
%
Delta-T
°C
Wind Press
QNH
hPa
Press
MSL
hPa
Rain
since 9 am
mm
Dir
 
Spd
km/h
Gust
km/h
Spd
kts
Gust
kts
13/11:30pm 14.3 13.5 11.8 85 1.4 SE 7 11 4 6 1017.5 - 0.0
13/11:00pm 14.7 13.7 12.2 85 1.4 SSE 9 13 5 7 1017.6 - 0.0
13/10:30pm 15.1 14.6 12.6 85 1.4 SE 7 9 4 5 1017.8 - 0.0
13/10:00pm 15.2 14.5 12.1 82 1.7 SSE 7 9 4 5 1017.7 - 0.0
13/09:30pm 15.7 15.0 12.1 79 2.0 SSE 7 11 4 6 1017.5 - 0.0
13/09:00pm 16.3 15.5 11.7 74 2.5 SSE 7 9 4 5 1017.4 1017.0 0.0
13/08:30pm 18.5 17.0 12.0 66 3.6 SSE 11 20 6 11 1017.2 - 0.0
13/08:00pm 18.7 17.4 12.5 67 3.5 S 11 15 6 8 1016.8 - 0.0
13/07:30pm 18.1 16.9 12.8 71 3.0 S 11 13 6 7 1016.5 - 0.0
13/07:00pm 18.5 18.0 12.7 69 3.3 S 7 11 4 6 1016.2 - 0.0
13/06:30pm 19.3 18.8 12.8 66 3.7 S 7 11 4 6 1015.9 - 0.0
13/06:00pm 20.4 19.4 12.4 60 4.5 S 9 13 5 7 1015.5 1015.0 0.0
13/05:30pm 22.0 20.6 12.3 54 5.5 S 11 17 6 9 1015.4 - 0.0
13/05:00pm 23.0 21.3 12.3 51 6.1 S 13 19 7 10 1015.0 - 0.0
13/04:30pm 23.3 20.6 11.7 48 6.6 S 17 28 9 15 1014.6 - 0.0
13/04:00pm 23.8 21.3 12.4 48 6.6 S 17 22 9 12 1014.5 - 0.0
13/03:30pm 24.1 21.9 12.1 47 6.9 S 15 26 8 14 1014.5 - 0.0
13/03:00pm 24.5 22.5 12.8 48 6.8 S 15 28 8 15 1014.6 1014.1 0.0
13/02:30pm 24.2 21.8 12.5 48 6.8 S 17 24 9 13 1014.7 - 0.0

Other Formats:

Comma delimited format used in spreadsheet applications
http://www.bom.gov.au/fwo/IDN60801/IDN60801.95710.axf

JavaScript Object Notation format (JSON) in row-major order
http://www.bom.gov.au/fwo/IDN60801/IDN60801.95710.json